createdAt,value
2023-02-14T00:00:28.912Z,84.59
2023-02-14T00:02:57.069Z,84.75
2023-02-14T00:05:23.742Z,84.68
2023-02-14T00:07:50.153Z,84.40
2023-02-14T00:10:17.269Z,84.25
2023-02-14T00:12:43.662Z,84.42
2023-02-14T00:15:22.933Z,84.86
2023-02-14T00:17:54.668Z,85.05
2023-02-14T00:20:22.765Z,84.73
2023-02-14T00:22:49.322Z,84.95
2023-02-14T00:25:17.004Z,84.53
2023-02-14T00:27:43.457Z,84.64
2023-02-14T00:30:12.890Z,84.21
2023-02-14T00:32:40.256Z,84.23
2023-02-14T00:35:08.230Z,84.21
2023-02-14T00:37:34.735Z,84.82
2023-02-14T00:40:01.097Z,84.75
2023-02-14T00:42:27.534Z,84.98
2023-02-14T00:44:53.926Z,84.90
2023-02-14T00:47:20.297Z,85.21
2023-02-14T00:49:46.651Z,84.96
2023-02-14T00:52:12.997Z,84.82
2023-02-14T00:54:39.391Z,84.56
2023-02-14T00:57:05.856Z,84.69
2023-02-14T00:59:32.211Z,85.08
2023-02-14T01:01:58.589Z,85.26
2023-02-14T01:04:24.998Z,86.57
2023-02-14T01:06:51.356Z,85.76
2023-02-14T01:09:17.746Z,85.73
2023-02-14T01:11:44.239Z,85.78
2023-02-14T01:14:10.576Z,85.52
2023-02-14T01:16:38.810Z,85.44
2023-02-14T01:19:05.326Z,85.04
2023-02-14T01:21:33.819Z,85.54
2023-02-14T01:24:02.979Z,84.95
2023-02-14T01:26:29.607Z,84.96
2023-02-14T01:28:56.584Z,84.89
2023-02-14T01:31:26.093Z,85.20
2023-02-14T01:33:53.374Z,84.41
2023-02-14T01:36:28.381Z,84.64
2023-02-14T01:38:58.407Z,85.13
2023-02-14T01:41:26.395Z,84.99
2023-02-14T01:43:56.181Z,84.80
2023-02-14T01:46:23.292Z,84.40
2023-02-14T01:48:50.820Z,84.72
2023-02-14T01:51:19.899Z,84.73
2023-02-14T01:53:47.170Z,85.08
2023-02-14T01:56:20.012Z,84.48
2023-02-14T01:58:50.360Z,84.55
2023-02-14T02:01:18.369Z,84.76
2023-02-14T02:03:50.427Z,84.34
2023-02-14T02:06:39.395Z,85.22
2023-02-14T02:09:32.403Z,85.17
2023-02-14T02:11:59.439Z,84.95
2023-02-14T02:14:25.878Z,85.36
2023-02-14T02:17:10.137Z,84.98
2023-02-14T02:20:01.351Z,84.47
2023-02-14T02:22:58.750Z,84.55
2023-02-14T02:26:01.058Z,85.03
2023-02-14T02:29:04.438Z,84.60
2023-02-14T02:32:06.052Z,84.82
2023-02-14T02:34:57.733Z,84.23
2023-02-14T02:37:51.031Z,83.96
2023-02-14T02:40:48.987Z,84.20
2023-02-14T02:43:53.873Z,83.26
2023-02-14T02:46:49.767Z,83.35
2023-02-14T02:49:39.053Z,83.34
2023-02-14T02:52:32.241Z,82.06
2023-02-14T02:55:06.047Z,82.64
2023-02-14T02:57:37.673Z,82.61
2023-02-14T03:00:07.396Z,81.79
2023-02-14T03:03:00.616Z,82.21
2023-02-14T03:05:28.854Z,81.35
2023-02-14T03:07:55.203Z,81.90
2023-02-14T03:10:24.751Z,81.65
2023-02-14T03:13:10.236Z,82.13
2023-02-14T03:16:12.374Z,82.33
2023-02-14T03:19:09.420Z,82.16
2023-02-14T03:22:00.746Z,81.96
2023-02-14T03:24:46.020Z,81.88
2023-02-14T03:27:25.449Z,82.28
2023-02-14T03:30:14.448Z,82.39
2023-02-14T03:32:51.598Z,81.85
2023-02-14T03:35:32.055Z,81.60
2023-02-14T03:38:08.282Z,81.59
2023-02-14T03:40:40.838Z,82.27
2023-02-14T03:43:12.938Z,81.18
2023-02-14T03:45:52.910Z,80.99
2023-02-14T03:48:23.998Z,80.90
2023-02-14T03:50:52.279Z,79.50
2023-02-14T03:53:24.676Z,79.81
2023-02-14T03:56:01.437Z,78.22
2023-02-14T03:58:37.446Z,77.54
2023-02-14T04:01:11.597Z,77.79
2023-02-14T04:03:41.006Z,76.99
2023-02-14T04:06:08.341Z,77.33
2023-02-14T04:08:35.077Z,76.91
2023-02-14T04:11:04.677Z,77.05
2023-02-14T04:13:31.338Z,76.98
2023-02-14T04:15:57.790Z,77.55
2023-02-14T04:18:42.934Z,77.12
2023-02-14T04:21:09.347Z,76.95
2023-02-14T04:23:35.695Z,77.02
2023-02-14T04:26:03.725Z,77.40
2023-02-14T04:28:30.768Z,76.96
2023-02-14T04:31:00.817Z,78.20
2023-02-14T04:33:27.530Z,76.73
2023-02-14T04:35:53.922Z,76.95
2023-02-14T04:38:20.463Z,77.32
2023-02-14T04:40:49.803Z,76.36
2023-02-14T04:43:16.228Z,75.83
2023-02-14T04:45:42.578Z,75.51
2023-02-14T04:48:08.969Z,76.61
2023-02-14T04:50:35.374Z,76.29
2023-02-14T04:53:01.718Z,76.20
2023-02-14T04:55:28.195Z,76.60
2023-02-14T04:57:54.546Z,76.86
2023-02-14T05:00:21.133Z,77.19
2023-02-14T05:02:47.583Z,77.56
2023-02-14T05:05:13.943Z,78.27
2023-02-14T05:07:40.362Z,78.43
2023-02-14T05:10:07.178Z,78.15
2023-02-14T05:12:33.632Z,77.25
2023-02-14T05:15:00.376Z,77.83
2023-02-14T05:17:26.760Z,77.22
2023-02-14T05:19:53.172Z,76.90
2023-02-14T05:22:19.509Z,76.80
2023-02-14T05:24:45.874Z,77.48
2023-02-14T05:27:12.251Z,78.01
2023-02-14T05:29:38.726Z,77.38
2023-02-14T05:32:05.242Z,77.55
2023-02-14T05:34:31.623Z,78.44
2023-02-14T05:36:58.002Z,76.12
2023-02-14T05:39:24.387Z,77.13
2023-02-14T05:41:51.034Z,76.84
2023-02-14T05:44:17.398Z,76.96
2023-02-14T05:46:43.747Z,77.44
2023-02-14T05:49:10.106Z,76.63
2023-02-14T05:51:36.449Z,77.08
2023-02-14T05:54:02.832Z,76.63
2023-02-14T05:56:29.221Z,77.31
2023-02-14T05:58:55.588Z,77.42
2023-02-14T06:01:22.002Z,77.32
2023-02-14T06:03:48.402Z,78.26
2023-02-14T06:06:14.761Z,78.96
2023-02-14T06:08:41.144Z,77.82
2023-02-14T06:11:07.487Z,78.62
2023-02-14T06:13:33.848Z,78.32
2023-02-14T06:16:00.275Z,78.09
2023-02-14T06:18:29.476Z,77.96
2023-02-14T06:20:55.902Z,78.78
2023-02-14T06:23:22.641Z,78.60
2023-02-14T06:25:48.992Z,77.95
2023-02-14T06:28:15.424Z,78.40
2023-02-14T06:30:42.075Z,77.96
2023-02-14T06:33:08.533Z,77.70
2023-02-14T06:35:34.890Z,77.40
2023-02-14T06:38:01.238Z,77.75
2023-02-14T06:40:27.603Z,77.76
2023-02-14T06:42:54.016Z,77.61
2023-02-14T06:45:20.363Z,77.90
2023-02-14T06:47:47.083Z,77.86
2023-02-14T06:50:13.436Z,78.55
2023-02-14T06:52:39.861Z,77.65
2023-02-14T06:55:06.527Z,76.80
2023-02-14T06:57:32.925Z,77.42
2023-02-14T06:59:59.279Z,77.21
2023-02-14T07:02:25.738Z,77.10
2023-02-14T07:04:52.225Z,76.91
2023-02-14T07:07:18.606Z,77.42
2023-02-14T07:09:44.955Z,77.19
2023-02-14T07:12:11.465Z,77.92
2023-02-14T07:14:37.825Z,78.08
2023-02-14T07:17:04.620Z,77.52
2023-02-14T07:19:30.977Z,77.30
2023-02-14T07:21:57.320Z,76.57
2023-02-14T07:24:23.848Z,77.11
2023-02-14T07:26:50.232Z,77.17
2023-02-14T07:29:16.596Z,75.98
2023-02-14T07:31:43.067Z,75.97
2023-02-14T07:34:09.496Z,76.52
2023-02-14T07:36:37.462Z,76.71
2023-02-14T07:39:03.861Z,76.57
2023-02-14T07:41:30.258Z,76.79
2023-02-14T07:43:56.605Z,76.83
2023-02-14T07:46:22.988Z,76.91
2023-02-14T07:48:50.659Z,76.38
2023-02-14T07:51:17.028Z,76.22
2023-02-14T07:53:43.387Z,76.51
2023-02-14T07:56:09.757Z,76.39
2023-02-14T07:58:36.118Z,76.48
2023-02-14T08:01:02.670Z,75.95
2023-02-14T08:03:29.235Z,76.44
2023-02-14T08:05:58.268Z,76.48
2023-02-14T08:08:27.381Z,75.98
2023-02-14T08:10:53.806Z,76.10
2023-02-14T08:13:20.424Z,76.59
2023-02-14T08:16:05.130Z,76.59
2023-02-14T08:18:42.341Z,76.56
2023-02-14T08:21:11.135Z,76.20
2023-02-14T08:23:37.674Z,75.94
2023-02-14T08:26:04.313Z,76.85
2023-02-14T08:28:32.914Z,77.09
2023-02-14T08:30:59.672Z,76.38
2023-02-14T08:33:26.251Z,75.07
2023-02-14T08:35:52.723Z,75.84
2023-02-14T08:38:19.540Z,76.07
2023-02-14T08:40:46.035Z,76.40
2023-02-14T08:43:12.778Z,75.45
2023-02-14T08:45:40.091Z,74.66
2023-02-14T08:48:11.945Z,74.64
2023-02-14T08:50:39.354Z,75.21
2023-02-14T08:53:10.240Z,75.28
2023-02-14T08:55:37.241Z,75.52
2023-02-14T08:58:04.348Z,76.45
2023-02-14T09:00:32.217Z,74.97
2023-02-14T09:02:59.159Z,74.66
2023-02-14T09:05:26.549Z,74.73
2023-02-14T09:07:55.867Z,75.30
2023-02-14T09:10:22.480Z,75.72
2023-02-14T09:12:48.846Z,75.48
2023-02-14T09:15:15.200Z,75.19
2023-02-14T09:17:41.614Z,75.91
2023-02-14T09:20:11.459Z,75.42
2023-02-14T09:22:37.888Z,74.56
2023-02-14T09:25:04.895Z,73.90
2023-02-14T09:27:31.371Z,73.52
2023-02-14T09:29:57.741Z,75.23
2023-02-14T09:32:27.076Z,75.50
2023-02-14T09:34:53.494Z,75.59
2023-02-14T09:37:38.640Z,75.51
2023-02-14T09:40:05.764Z,76.01
2023-02-14T09:43:13.704Z,75.95
2023-02-14T09:45:40.339Z,76.09
2023-02-14T09:48:17.235Z,76.02
2023-02-14T09:50:54.900Z,75.89
2023-02-14T09:53:46.458Z,75.35
2023-02-14T09:56:37.306Z,75.80
2023-02-14T09:59:39.282Z,76.06
2023-02-14T10:02:43.145Z,74.53
2023-02-14T10:05:15.488Z,74.80
2023-02-14T10:08:05.142Z,74.74
2023-02-14T10:10:43.073Z,74.63
2023-02-14T10:13:40.637Z,75.00
2023-02-14T10:16:36.500Z,74.65
2023-02-14T10:19:40.483Z,74.33
2023-02-14T10:22:15.125Z,74.88
2023-02-14T10:24:55.087Z,74.30
2023-02-14T10:27:32.480Z,74.30
2023-02-14T10:29:59.104Z,74.61
2023-02-14T10:32:37.797Z,74.67
2023-02-14T10:35:15.935Z,74.42
2023-02-14T10:38:17.421Z,74.44
2023-02-14T10:41:01.871Z,74.31
2023-02-14T10:43:41.489Z,74.65
2023-02-14T10:46:19.379Z,74.85
2023-02-14T10:49:08.175Z,75.21
2023-02-14T10:51:51.144Z,75.07
2023-02-14T10:54:28.898Z,75.06
2023-02-14T10:57:18.499Z,75.49
2023-02-14T10:59:49.350Z,74.83
2023-02-14T11:02:18.194Z,74.50
2023-02-14T11:04:47.167Z,74.12
2023-02-14T11:07:15.484Z,74.30
2023-02-14T11:09:41.920Z,74.57
2023-02-14T11:12:09.862Z,74.49
2023-02-14T11:14:38.121Z,74.27
2023-02-14T11:17:35.862Z,74.21
2023-02-14T11:20:20.363Z,74.42
2023-02-14T11:22:46.758Z,73.64
2023-02-14T11:25:35.557Z,73.42
2023-02-14T11:28:07.874Z,74.14
2023-02-14T11:30:37.011Z,73.70
2023-02-14T11:33:04.726Z,74.04
2023-02-14T11:35:37.015Z,73.65
2023-02-14T11:38:30.491Z,73.72
2023-02-14T11:40:59.150Z,73.68
2023-02-14T11:43:40.247Z,73.89
2023-02-14T11:46:22.793Z,73.52
2023-02-14T11:48:57.652Z,73.11
2023-02-14T11:51:34.933Z,72.98
2023-02-14T11:54:05.371Z,72.65
2023-02-14T11:56:49.587Z,72.78
2023-02-14T11:59:27.983Z,72.71
2023-02-14T12:01:55.738Z,72.63
2023-02-14T12:04:32.787Z,72.37
2023-02-14T12:07:17.943Z,72.80
2023-02-14T12:09:46.278Z,72.67
2023-02-14T12:12:23.543Z,72.94
2023-02-14T12:14:50.196Z,72.45
2023-02-14T12:17:30.301Z,72.80
2023-02-14T12:20:11.923Z,72.61
2023-02-14T12:23:03.402Z,72.82
2023-02-14T12:25:45.286Z,72.41
2023-02-14T12:28:17.874Z,71.96
2023-02-14T12:30:44.300Z,71.76
2023-02-14T12:33:21.840Z,72.13
2023-02-14T12:36:03.532Z,72.82
2023-02-14T12:38:46.036Z,72.62
2023-02-14T12:41:50.147Z,71.89
2023-02-14T12:44:25.931Z,72.78
2023-02-14T12:46:58.741Z,72.23
2023-02-14T12:49:30.937Z,71.99
2023-02-14T12:52:12.942Z,71.91
2023-02-14T12:54:39.316Z,71.67
2023-02-14T12:57:44.321Z,72.22
2023-02-14T13:00:14.847Z,71.80
2023-02-14T13:03:15.112Z,71.73
2023-02-14T13:06:17.523Z,71.80
2023-02-14T13:09:21.336Z,71.61
2023-02-14T13:12:17.201Z,71.67
2023-02-14T13:14:58.145Z,71.36
2023-02-14T13:17:38.498Z,71.25
2023-02-14T13:20:30.971Z,70.81
2023-02-14T13:23:02.995Z,70.91
2023-02-14T13:25:34.520Z,70.86
2023-02-14T13:28:04.653Z,70.98
2023-02-14T13:30:37.133Z,71.12
2023-02-14T13:33:09.472Z,71.58
2023-02-14T13:35:36.144Z,71.47
2023-02-14T13:38:06.863Z,71.42
2023-02-14T13:40:35.474Z,71.44
2023-02-14T13:43:02.637Z,71.13
2023-02-14T13:45:37.824Z,71.35
2023-02-14T13:48:14.457Z,70.61
2023-02-14T13:50:59.660Z,70.68
2023-02-14T13:53:40.211Z,71.25
2023-02-14T13:56:12.725Z,71.57
2023-02-14T13:58:52.913Z,72.17
2023-02-14T14:01:28.451Z,71.37
2023-02-14T14:04:01.775Z,71.07
2023-02-14T14:06:28.445Z,72.19
2023-02-14T14:08:57.085Z,72.07
2023-02-14T14:11:23.386Z,72.48
2023-02-14T14:14:01.600Z,71.96
2023-02-14T14:16:33.284Z,71.92
2023-02-14T14:19:21.987Z,71.85
2023-02-14T14:22:10.088Z,71.94
2023-02-14T14:24:38.045Z,72.02
2023-02-14T14:27:06.947Z,71.99
2023-02-14T14:29:53.930Z,71.62
2023-02-14T14:32:30.315Z,72.27
2023-02-14T14:35:18.711Z,71.92
2023-02-14T14:37:51.699Z,71.91
2023-02-14T14:40:32.044Z,72.08
2023-02-14T14:43:22.779Z,72.28
2023-02-14T14:45:51.482Z,72.50
2023-02-14T14:48:43.485Z,72.02
2023-02-14T14:51:36.846Z,72.22
2023-02-14T14:54:13.460Z,72.07
2023-02-14T14:56:50.889Z,72.53
2023-02-14T14:59:22.408Z,72.55
2023-02-14T15:01:54.215Z,71.80
2023-02-14T15:04:32.396Z,71.96
2023-02-14T15:07:18.669Z,72.28
2023-02-14T15:09:45.379Z,72.36
2023-02-14T15:12:35.714Z,72.67
2023-02-14T15:15:02.267Z,72.31
2023-02-14T15:17:31.656Z,72.62
2023-02-14T15:20:07.048Z,72.13
2023-02-14T15:22:41.789Z,71.92
2023-02-14T15:25:20.596Z,71.71
2023-02-14T15:27:47.832Z,72.84
2023-02-14T15:30:37.078Z,72.64
2023-02-14T15:33:05.956Z,72.06
2023-02-14T15:35:34.790Z,71.96
2023-02-14T15:38:04.542Z,71.26
2023-02-14T15:40:33.941Z,71.91
2023-02-14T15:43:41.505Z,71.89
2023-02-14T15:46:29.625Z,72.22
2023-02-14T15:49:00.811Z,72.31
2023-02-14T15:51:30.728Z,72.71
2023-02-14T15:54:00.378Z,72.76
2023-02-14T15:56:43.162Z,73.32
2023-02-14T15:59:17.502Z,73.90
2023-02-14T16:01:52.537Z,74.02
2023-02-14T16:04:27.084Z,74.94
2023-02-14T16:07:24.361Z,75.43
2023-02-14T16:10:11.818Z,75.94
2023-02-14T16:12:39.830Z,76.83
2023-02-14T16:15:15.147Z,76.35
2023-02-14T16:17:43.912Z,76.05
2023-02-14T16:20:38.940Z,77.05
2023-02-14T16:23:20.456Z,76.60
2023-02-14T16:25:47.884Z,77.04
2023-02-14T16:28:14.790Z,77.14
2023-02-14T16:30:42.548Z,77.67
2023-02-14T16:33:36.853Z,77.44
2023-02-14T16:36:14.056Z,77.98
2023-02-14T16:38:43.864Z,77.93
2023-02-14T16:41:19.181Z,77.67
2023-02-14T16:43:46.613Z,77.51
2023-02-14T16:46:14.664Z,77.67
2023-02-14T16:48:42.401Z,78.32
2023-02-14T16:51:14.113Z,78.22
2023-02-14T16:53:42.593Z,78.45
2023-02-14T16:56:17.720Z,78.70
2023-02-14T16:58:44.531Z,78.96
2023-02-14T17:01:10.971Z,79.14
2023-02-14T17:03:39.596Z,78.88
2023-02-14T17:06:08.075Z,79.09
2023-02-14T17:08:34.846Z,79.20
2023-02-14T17:11:02.101Z,79.36
2023-02-14T17:13:32.873Z,80.09
2023-02-14T17:16:01.369Z,79.79
2023-02-14T17:18:30.369Z,80.20
2023-02-14T17:20:59.198Z,80.02
2023-02-14T17:23:26.135Z,80.11
2023-02-14T17:25:52.528Z,80.20
2023-02-14T17:28:18.854Z,80.28
2023-02-14T17:30:45.224Z,81.05
2023-02-14T17:33:11.572Z,80.09
2023-02-14T17:35:38.094Z,80.30
2023-02-14T17:38:04.494Z,80.22
2023-02-14T17:40:31.901Z,80.15
2023-02-14T17:42:58.450Z,80.60
2023-02-14T17:45:24.922Z,80.56
2023-02-14T17:47:51.293Z,80.72
2023-02-14T17:50:18.123Z,80.44
2023-02-14T17:52:44.990Z,80.39
2023-02-14T17:55:12.127Z,80.88
2023-02-14T17:57:40.848Z,81.07
2023-02-14T18:00:11.614Z,80.85
2023-02-14T18:02:38.538Z,81.11
2023-02-14T18:05:07.229Z,81.11
2023-02-14T18:07:33.785Z,81.32
2023-02-14T18:10:00.178Z,81.38
2023-02-14T18:12:26.622Z,81.20
2023-02-14T18:14:55.081Z,81.59
2023-02-14T18:17:21.503Z,81.72
2023-02-14T18:19:47.930Z,81.79
2023-02-14T18:22:14.711Z,81.82
2023-02-14T18:24:41.593Z,81.89
2023-02-14T18:27:07.956Z,81.56
2023-02-14T18:29:36.183Z,81.77
2023-02-14T18:32:03.800Z,82.09
2023-02-14T18:34:30.260Z,82.34
2023-02-14T18:36:57.174Z,82.52
2023-02-14T18:39:23.649Z,82.23
2023-02-14T18:41:50.174Z,81.93
2023-02-14T18:44:16.581Z,82.36
2023-02-14T18:46:42.955Z,82.69
2023-02-14T18:49:10.274Z,82.40
2023-02-14T18:51:39.299Z,82.40
2023-02-14T18:54:06.490Z,82.75
2023-02-14T18:56:35.678Z,82.30
2023-02-14T18:59:04.838Z,82.94
2023-02-14T19:01:36.716Z,83.10
2023-02-14T19:04:06.755Z,82.98
2023-02-14T19:06:34.032Z,82.99
2023-02-14T19:09:01.747Z,83.22
2023-02-14T19:11:31.484Z,82.93
2023-02-14T19:13:59.297Z,83.40
2023-02-14T19:16:28.520Z,83.56
2023-02-14T19:18:55.414Z,83.43
2023-02-14T19:21:24.579Z,83.65
2023-02-14T19:23:53.021Z,83.32
2023-02-14T19:26:22.016Z,83.40
2023-02-14T19:28:50.485Z,83.22
2023-02-14T19:31:16.940Z,83.63
2023-02-14T19:33:44.952Z,83.66
2023-02-14T19:36:13.305Z,83.69
2023-02-14T19:38:41.495Z,83.78
2023-02-14T19:41:16.654Z,83.71
2023-02-14T19:43:44.250Z,83.73
2023-02-14T19:46:10.613Z,84.09
2023-02-14T19:48:37.011Z,84.05
2023-02-14T19:51:03.604Z,84.26
2023-02-14T19:53:30.314Z,83.94
2023-02-14T19:55:56.674Z,84.25
2023-02-14T19:58:25.981Z,83.82
2023-02-14T20:00:59.267Z,83.69
2023-02-14T20:03:27.872Z,84.55
2023-02-14T20:05:54.234Z,84.18
2023-02-14T20:08:21.795Z,84.59
2023-02-14T20:10:48.142Z,84.65
2023-02-14T20:13:14.536Z,84.32
2023-02-14T20:15:40.919Z,84.48
2023-02-14T20:18:07.599Z,84.38
2023-02-14T20:20:53.913Z,84.29
2023-02-14T20:23:20.245Z,85.01
2023-02-14T20:25:46.574Z,84.63
2023-02-14T20:28:12.925Z,84.98
2023-02-14T20:30:39.649Z,84.68
2023-02-14T20:33:06.494Z,84.91
2023-02-14T20:35:38.017Z,85.04
2023-02-14T20:38:07.455Z,85.03
2023-02-14T20:40:43.436Z,85.19
2023-02-14T20:43:09.700Z,85.18
2023-02-14T20:45:36.029Z,84.84
2023-02-14T20:48:04.182Z,84.87
2023-02-14T20:50:31.480Z,84.68
2023-02-14T20:52:58.167Z,84.88
2023-02-14T20:55:27.018Z,84.92
2023-02-14T20:57:53.774Z,85.13
2023-02-14T21:00:20.263Z,85.55
2023-02-14T21:02:46.636Z,85.42
2023-02-14T21:05:18.270Z,85.76
2023-02-14T21:07:44.636Z,85.68
2023-02-14T21:10:11.071Z,85.88
2023-02-14T21:12:38.502Z,85.94
2023-02-14T21:15:06.882Z,85.80
2023-02-14T21:17:33.862Z,85.41
2023-02-14T21:20:00.214Z,85.44
2023-02-14T21:22:26.566Z,85.92
2023-02-14T21:24:52.915Z,85.75
2023-02-14T21:27:19.297Z,85.98
2023-02-14T21:29:45.637Z,85.86
2023-02-14T21:32:12.106Z,85.88
2023-02-14T21:34:38.554Z,86.02
2023-02-14T21:37:04.946Z,85.81
2023-02-14T21:39:31.378Z,85.56
2023-02-14T21:41:57.850Z,85.94
2023-02-14T21:44:42.621Z,86.10
2023-02-14T21:47:09.022Z,86.17
2023-02-14T21:49:53.770Z,85.74
2023-02-14T21:52:20.182Z,85.96
2023-02-14T21:54:47.009Z,86.35
2023-02-14T21:57:13.378Z,86.16
2023-02-14T21:59:40.290Z,86.03
2023-02-14T22:02:07.162Z,86.08
2023-02-14T22:04:35.373Z,86.08
2023-02-14T22:07:01.776Z,86.24
2023-02-14T22:09:28.157Z,86.22
2023-02-14T22:11:54.572Z,86.48
2023-02-14T22:14:20.930Z,86.46
2023-02-14T22:16:47.278Z,87.00
2023-02-14T22:19:15.452Z,86.82
2023-02-14T22:21:42.701Z,86.76
2023-02-14T22:24:09.044Z,86.76
2023-02-14T22:26:40.800Z,86.79
2023-02-14T22:29:09.720Z,86.98
2023-02-14T22:31:38.396Z,86.72
2023-02-14T22:34:06.345Z,86.91
2023-02-14T22:36:32.752Z,86.79
2023-02-14T22:39:02.870Z,86.99
2023-02-14T22:41:29.580Z,86.91
2023-02-14T22:43:57.310Z,86.95
2023-02-14T22:46:27.620Z,87.18
2023-02-14T22:48:55.043Z,86.91
2023-02-14T22:51:38.683Z,86.85
2023-02-14T22:54:07.830Z,87.25
2023-02-14T22:56:38.774Z,87.30
2023-02-14T22:59:08.265Z,87.31
2023-02-14T23:01:35.706Z,87.58
2023-02-14T23:04:03.629Z,87.49
2023-02-14T23:06:32.400Z,87.06
2023-02-14T23:09:00.535Z,87.70
2023-02-14T23:11:29.733Z,87.65
2023-02-14T23:14:14.904Z,87.50
2023-02-14T23:17:00.695Z,87.76
2023-02-14T23:19:49.135Z,87.74
2023-02-14T23:22:20.349Z,87.65
2023-02-14T23:24:48.135Z,87.77
2023-02-14T23:27:16.574Z,87.89
2023-02-14T23:29:42.936Z,87.94
2023-02-14T23:32:09.709Z,87.97
2023-02-14T23:34:39.872Z,87.78
2023-02-14T23:37:07.556Z,87.83
2023-02-14T23:39:36.549Z,88.08
2023-02-14T23:42:04.421Z,87.91
2023-02-14T23:44:31.040Z,87.84
2023-02-14T23:46:59.238Z,88.04
2023-02-14T23:49:26.298Z,87.98
2023-02-14T23:51:55.064Z,88.04
2023-02-14T23:54:23.072Z,88.38
2023-02-14T23:56:50.963Z,88.22
2023-02-14T23:59:17.493Z,88.43
